Time;durP1;ratioP1;P1;durP2;ratioP2;P2;SDS_P1;SDS_P2;PMS_P1;PMS_P2;Temp;Humidity;BMP_temperature;BMP_pressure;BME280_temperature;BME280_humidity;BME280_pressure;Samples;Min_cycle;Max_cycle;Signal;HPM_P1;HPM_P2
2021/01/30 00:01:34;;;;;;;26.42;24.73;;;;;;;;;;5093742;28;20212;-85
2021/01/30 00:04:00;;;;;;;27.02;25.00;;;;;;;;;;5093892;28;20202;-85
2021/01/30 00:06:27;;;;;;;27.02;25.30;;;;;;;;;;5093911;28;20190;-86
2021/01/30 00:08:54;;;;;;;27.65;25.75;;;;;;;;;;5093613;28;20250;-85
2021/01/30 00:11:21;;;;;;;29.30;27.30;;;;;;;;;;5093942;28;20245;-85
2021/01/30 00:13:48;;;;;;;30.73;28.52;;;;;;;;;;5094054;28;20532;-85
2021/01/30 00:16:15;;;;;;;26.73;24.92;;;;;;;;;;5093769;28;20629;-85
2021/01/30 00:18:43;;;;;;;27.65;25.65;;;;;;;;;;5093864;28;20191;-85
2021/01/30 00:21:10;;;;;;;28.58;26.58;;;;;;;;;;5093719;28;20238;-85
2021/01/30 00:23:37;;;;;;;27.42;25.23;;;;;;;;;;5093637;28;20202;-85
2021/01/30 00:26:04;;;;;;;30.30;28.15;;;;;;;;;;5094391;28;20188;-85
2021/01/30 00:28:31;;;;;;;34.17;31.58;;;;;;;;;;5093971;28;20199;-85
2021/01/30 00:30:58;;;;;;;36.10;33.40;;;;;;;;;;5093773;28;20248;-84
2021/01/30 00:33:25;;;;;;;37.35;34.08;;;;;;;;;;5093846;28;20207;-85
2021/01/30 00:35:53;;;;;;;36.60;33.70;;;;;;;;;;5076097;28;20537;-85
2021/01/30 00:38:20;;;;;;;38.85;35.65;;;;;;;;;;5093877;28;20188;-85
2021/01/30 00:40:47;;;;;;;35.72;32.97;;;;;;;;;;5093439;28;20277;-85
2021/01/30 00:43:14;;;;;;;30.52;28.25;;;;;;;;;;5093374;28;20187;-85
2021/01/30 00:45:40;;;;;;;35.03;32.47;;;;;;;;;;5076216;28;20187;-84
2021/01/30 00:48:07;;;;;;;33.90;31.00;;;;;;;;;;5093573;28;20183;-84
2021/01/30 00:50:34;;;;;;;34.40;31.75;;;;;;;;;;5093416;28;20237;-84
2021/01/30 00:53:02;;;;;;;34.17;31.42;;;;;;;;;;5093574;28;20195;-85
2021/01/30 00:55:29;;;;;;;37.22;34.33;;;;;;;;;;5093808;28;20191;-85
2021/01/30 00:57:56;;;;;;;35.00;32.20;;;;;;;;;;5093572;28;20191;-85
2021/01/30 01:00:24;;;;;;;33.65;30.83;;;;;;;;;;5093766;28;20199;-85
2021/01/30 01:02:51;;;;;;;37.85;34.65;;;;;;;;;;5097386;28;20214;-85
2021/01/30 01:05:19;;;;;;;38.13;34.88;;;;;;;;;;5097147;28;20248;-84
2021/01/30 01:07:46;;;;;;;37.00;33.90;;;;;;;;;;5078786;28;20591;-85
2021/01/30 01:10:15;;;;;;;37.45;34.40;;;;;;;;;;5096898;28;20191;-85
2021/01/30 01:12:42;;;;;;;34.53;31.63;;;;;;;;;;5096734;28;20203;-85
2021/01/30 01:15:11;;;;;;;38.08;34.55;;;;;;;;;;5097059;28;20191;-84
2021/01/30 01:17:38;;;;;;;36.28;33.08;;;;;;;;;;5097085;28;20188;-85
2021/01/30 01:20:05;;;;;;;36.92;33.75;;;;;;;;;;5097128;28;20183;-85
2021/01/30 01:22:32;;;;;;;38.70;35.50;;;;;;;;;;5096916;28;20219;-85
2021/01/30 01:24:59;;;;;;;33.38;30.77;;;;;;;;;;5079305;28;20240;-85
2021/01/30 01:27:27;;;;;;;34.70;32.10;;;;;;;;;;5096650;28;20192;-85
2021/01/30 01:29:54;;;;;;;28.77;26.52;;;;;;;;;;5096367;28;20219;-85
2021/01/30 01:32:24;;;;;;;29.88;27.80;;;;;;;;;;5096853;28;20187;-85
2021/01/30 01:34:51;;;;;;;32.88;30.58;;;;;;;;;;5096793;28;20190;-85
2021/01/30 01:37:18;;;;;;;31.13;28.88;;;;;;;;;;5078465;28;20252;-85
2021/01/30 01:39:45;;;;;;;31.98;29.58;;;;;;;;;;5096360;28;20188;-85
2021/01/30 01:42:13;;;;;;;29.70;27.70;;;;;;;;;;5096248;28;20688;-85
2021/01/30 01:44:42;;;;;;;27.95;26.15;;;;;;;;;;5096561;28;20187;-85
2021/01/30 01:47:10;;;;;;;29.88;27.63;;;;;;;;;;5097406;28;20521;-85
2021/01/30 01:49:39;;;;;;;29.13;27.05;;;;;;;;;;5096255;28;20191;-85
2021/01/30 01:52:07;;;;;;;26.40;24.60;;;;;;;;;;5096209;28;20671;-85
2021/01/30 01:54:35;;;;;;;26.95;25.15;;;;;;;;;;5096133;28;20195;-85
2021/01/30 01:57:04;;;;;;;27.50;25.60;;;;;;;;;;5096302;28;20218;-85
2021/01/30 01:59:31;;;;;;;26.30;24.50;;;;;;;;;;5096193;28;20212;-84
2021/01/30 02:01:59;;;;;;;27.48;25.67;;;;;;;;;;5095837;28;20210;-85
2021/01/30 02:04:26;;;;;;;25.88;24.20;;;;;;;;;;5096247;28;20196;-85
2021/01/30 02:06:53;;;;;;;24.83;23.30;;;;;;;;;;5096122;28;20197;-86
2021/01/30 02:09:23;;;;;;;27.95;25.95;;;;;;;;;;5095464;28;20276;-85
2021/01/30 02:11:54;;;;;;;26.83;24.85;;;;;;;;;;5095541;28;20236;-85
2021/01/30 02:14:21;;;;;;;27.08;25.17;;;;;;;;;;5095656;28;20187;-85
2021/01/30 02:16:50;;;;;;;27.90;26.05;;;;;;;;;;5095752;28;20232;-85
2021/01/30 02:19:35;;;;;;;28.92;27.05;;;;;;;;;;5095757;28;20637;-85
2021/01/30 02:22:31;;;;;;;26.95;25.25;;;;;;;;;;5055180;28;20218;-84
2021/01/30 02:25:17;;;;;;;25.80;24.17;;;;;;;;;;5077769;28;20199;-85
2021/01/30 02:27:58;;;;;;;28.02;26.33;;;;;;;;;;5095867;28;20624;-85
2021/01/30 02:30:46;;;;;;;26.67;24.98;;;;;;;;;;5095381;28;20223;-85
2021/01/30 02:33:19;;;;;;;26.60;24.90;;;;;;;;;;5095121;28;20207;-85
2021/01/30 02:35:59;;;;;;;26.90;25.20;;;;;;;;;;5095647;28;20190;-86
2021/01/30 02:38:27;;;;;;;26.80;25.15;;;;;;;;;;5095589;28;20691;-85
2021/01/30 02:40:58;;;;;;;26.65;24.95;;;;;;;;;;5077456;28;20230;-85
2021/01/30 02:43:26;;;;;;;23.92;22.42;;;;;;;;;;5095368;28;20240;-85
2021/01/30 02:45:56;;;;;;;25.17;23.70;;;;;;;;;;5095138;28;20187;-85
2021/01/30 02:48:24;;;;;;;25.10;23.50;;;;;;;;;;5077245;28;20202;-85
2021/01/30 02:50:52;;;;;;;24.48;23.02;;;;;;;;;;5095188;28;20274;-85
2021/01/30 02:53:22;;;;;;;23.10;21.70;;;;;;;;;;5095247;28;20198;-85
2021/01/30 02:55:49;;;;;;;24.77;23.38;;;;;;;;;;5095175;28;20194;-85
2021/01/30 02:58:17;;;;;;;24.33;22.88;;;;;;;;;;5095148;28;20191;-85
2021/01/30 03:00:45;;;;;;;23.67;22.23;;;;;;;;;;5094796;28;20569;-85
2021/01/30 03:03:12;;;;;;;24.25;22.75;;;;;;;;;;5095412;28;20544;-85
2021/01/30 03:05:39;;;;;;;24.52;23.13;;;;;;;;;;5094530;28;20205;-85
2021/01/30 03:08:15;;;;;;;24.70;23.25;;;;;;;;;;5094333;28;20234;-85
2021/01/30 03:10:47;;;;;;;23.58;22.17;;;;;;;;;;5094785;28;20248;-85
2021/01/30 03:13:15;;;;;;;23.67;22.30;;;;;;;;;;5094812;28;20183;-85
2021/01/30 03:15:44;;;;;;;24.00;22.50;;;;;;;;;;5095291;28;20198;-85
2021/01/30 03:18:12;;;;;;;23.95;22.55;;;;;;;;;;5095295;28;20275;-85
2021/01/30 03:20:41;;;;;;;24.10;22.48;;;;;;;;;;5094396;28;20640;-85
2021/01/30 03:23:08;;;;;;;23.65;22.25;;;;;;;;;;5094319;28;20190;-84
2021/01/30 03:25:35;;;;;;;23.08;21.83;;;;;;;;;;5094713;28;20193;-84
2021/01/30 03:28:03;;;;;;;24.08;22.58;;;;;;;;;;5076627;28;20207;-85
2021/01/30 03:30:31;;;;;;;23.80;22.17;;;;;;;;;;5094157;28;20214;-85
2021/01/30 03:32:58;;;;;;;24.48;22.88;;;;;;;;;;5094484;28;20637;-85
2021/01/30 03:35:25;;;;;;;23.70;22.30;;;;;;;;;;5094725;28;20224;-85
2021/01/30 03:37:52;;;;;;;24.35;22.92;;;;;;;;;;5094590;28;20190;-85
2021/01/30 03:40:20;;;;;;;23.17;21.70;;;;;;;;;;5076075;28;20202;-84
2021/01/30 03:42:47;;;;;;;23.75;22.35;;;;;;;;;;5094274;28;20642;-85
2021/01/30 03:45:17;;;;;;;22.83;21.42;;;;;;;;;;5094268;28;20552;-85
2021/01/30 03:47:44;;;;;;;24.38;22.83;;;;;;;;;;5094103;28;20190;-85
2021/01/30 03:50:12;;;;;;;23.98;22.48;;;;;;;;;;5094308;28;20528;-85
2021/01/30 03:52:39;;;;;;;23.33;21.92;;;;;;;;;;5094316;28;20195;-84
2021/01/30 03:55:07;;;;;;;24.05;22.65;;;;;;;;;;5093944;28;20186;-85
2021/01/30 03:57:33;;;;;;;23.92;22.45;;;;;;;;;;5094049;28;20187;-85
2021/01/30 04:00:00;;;;;;;25.42;23.80;;;;;;;;;;5093974;28;20191;-84
2021/01/30 04:02:29;;;;;;;23.50;22.10;;;;;;;;;;5094124;28;20206;-85
2021/01/30 04:04:55;;;;;;;24.90;23.20;;;;;;;;;;5094176;28;20244;-85
2021/01/30 04:07:22;;;;;;;25.23;23.70;;;;;;;;;;5093997;28;20279;-84
2021/01/30 04:09:49;;;;;;;24.88;23.38;;;;;;;;;;5094028;28;20191;-84
2021/01/30 04:12:16;;;;;;;25.25;23.58;;;;;;;;;;5093795;28;20195;-84
2021/01/30 04:14:43;;;;;;;25.08;23.50;;;;;;;;;;5093859;28;20210;-84
2021/01/30 04:17:10;;;;;;;25.63;24.02;;;;;;;;;;5094110;28;20186;-84
2021/01/30 04:19:38;;;;;;;24.30;22.90;;;;;;;;;;5094014;28;20190;-84
2021/01/30 04:22:05;;;;;;;26.00;24.40;;;;;;;;;;5093751;28;20230;-84
2021/01/30 04:24:32;;;;;;;25.15;23.40;;;;;;;;;;5093976;28;20243;-84
2021/01/30 04:26:59;;;;;;;25.52;23.92;;;;;;;;;;5094510;28;20551;-84
2021/01/30 04:29:25;;;;;;;25.73;23.98;;;;;;;;;;5093916;28;20222;-84
2021/01/30 04:31:55;;;;;;;25.25;23.70;;;;;;;;;;5093660;28;20188;-84
2021/01/30 04:34:22;;;;;;;25.13;23.60;;;;;;;;;;5094351;28;20207;-84
2021/01/30 04:36:50;;;;;;;26.30;24.55;;;;;;;;;;5096393;28;20214;-84
2021/01/30 04:39:18;;;;;;;25.52;23.92;;;;;;;;;;5097322;28;20259;-84
2021/01/30 04:41:57;;;;;;;26.25;24.63;;;;;;;;;;5097722;28;20340;-84
2021/01/30 04:44:27;;;;;;;26.60;25.00;;;;;;;;;;5097511;28;20187;-86
2021/01/30 04:47:00;;;;;;;25.95;24.25;;;;;;;;;;5097320;28;20191;-84
2021/01/30 04:49:32;;;;;;;24.02;22.52;;;;;;;;;;5097746;28;20530;-85
2021/01/30 04:52:04;;;;;;;26.27;24.67;;;;;;;;;;5097389;28;20203;-84
2021/01/30 04:54:38;;;;;;;26.73;25.02;;;;;;;;;;5097320;28;20183;-84
2021/01/30 04:57:11;;;;;;;26.45;24.85;;;;;;;;;;5097591;28;20190;-84
2021/01/30 04:59:40;;;;;;;25.85;24.25;;;;;;;;;;5097067;28;20183;-84
2021/01/30 05:02:13;;;;;;;26.00;24.30;;;;;;;;;;5097000;28;20214;-84
2021/01/30 05:04:42;;;;;;;25.80;24.15;;;;;;;;;;5096966;28;20187;-84
2021/01/30 05:07:16;;;;;;;26.77;25.08;;;;;;;;;;5096931;28;20206;-84
2021/01/30 05:09:46;;;;;;;27.02;25.15;;;;;;;;;;5097109;28;20199;-84
2021/01/30 05:12:16;;;;;;;26.95;25.15;;;;;;;;;;5096853;28;20191;-84
2021/01/30 05:14:46;;;;;;;24.77;23.27;;;;;;;;;;5097102;28;20206;-85
2021/01/30 05:17:16;;;;;;;27.75;25.95;;;;;;;;;;5097260;28;20191;-84
2021/01/30 05:19:44;;;;;;;27.40;25.60;;;;;;;;;;5096638;28;20628;-84
2021/01/30 05:22:15;;;;;;;27.15;25.05;;;;;;;;;;5097157;28;20611;-84
2021/01/30 05:24:44;;;;;;;27.15;25.35;;;;;;;;;;5096706;28;20211;-84
2021/01/30 05:27:33;;;;;;;26.63;24.73;;;;;;;;;;5096476;28;20228;-84
2021/01/30 05:30:05;;;;;;;26.35;24.65;;;;;;;;;;5096418;28;20726;-84
2021/01/30 05:32:36;;;;;;;26.08;24.30;;;;;;;;;;5096768;28;20194;-85
2021/01/30 05:35:05;;;;;;;26.05;24.35;;;;;;;;;;5096333;28;20197;-84
2021/01/30 05:37:35;;;;;;;24.83;23.20;;;;;;;;;;5096346;28;20248;-84
2021/01/30 05:40:20;;;;;;;25.67;23.85;;;;;;;;;;5096197;28;20570;-84
2021/01/30 05:42:52;;;;;;;24.88;23.38;;;;;;;;;;5078401;28;20700;-84
2021/01/30 05:45:24;;;;;;;25.92;24.25;;;;;;;;;;5096116;28;20187;-84
2021/01/30 05:47:52;;;;;;;27.23;25.42;;;;;;;;;;5095997;28;20265;-84
2021/01/30 05:50:20;;;;;;;25.85;24.25;;;;;;;;;;5096027;28;20191;-84
2021/01/30 05:52:48;;;;;;;27.02;25.23;;;;;;;;;;5096086;28;20282;-84
2021/01/30 05:55:25;;;;;;;25.75;24.05;;;;;;;;;;5096018;28;20198;-85
2021/01/30 05:57:52;;;;;;;26.45;24.67;;;;;;;;;;5096779;28;20198;-84
2021/01/30 06:00:21;;;;;;;28.50;26.50;;;;;;;;;;5096215;28;20191;-84
2021/01/30 06:03:00;;;;;;;27.30;25.50;;;;;;;;;;5096174;28;20264;-84
2021/01/30 06:05:31;;;;;;;26.38;24.73;;;;;;;;;;5095743;28;20208;-84
2021/01/30 06:08:09;;;;;;;26.40;24.70;;;;;;;;;;5095894;28;20254;-84
2021/01/30 06:10:36;;;;;;;26.25;24.45;;;;;;;;;;5096052;28;20187;-84
2021/01/30 06:13:09;;;;;;;29.80;27.70;;;;;;;;;;5095544;28;20197;-84
2021/01/30 06:15:37;;;;;;;27.02;25.10;;;;;;;;;;5095253;28;20199;-82
2021/01/30 06:18:25;;;;;;;29.00;27.00;;;;;;;;;;5095396;28;20195;-83
2021/01/30 06:21:00;;;;;;;28.90;26.63;;;;;;;;;;5095801;28;20187;-83
2021/01/30 06:23:28;;;;;;;28.65;26.75;;;;;;;;;;5095426;28;20663;-84
2021/01/30 06:26:04;;;;;;;29.45;27.40;;;;;;;;;;5095408;28;20205;-84
2021/01/30 06:28:32;;;;;;;28.60;26.60;;;;;;;;;;5095498;28;20225;-82
2021/01/30 06:31:09;;;;;;;27.15;25.17;;;;;;;;;;5095494;28;20573;-84
2021/01/30 06:33:37;;;;;;;28.42;26.52;;;;;;;;;;5095775;28;20206;-83
2021/01/30 06:36:09;;;;;;;28.50;26.60;;;;;;;;;;5095668;28;20202;-84
2021/01/30 06:38:40;;;;;;;28.15;26.17;;;;;;;;;;5095089;28;20659;-84
2021/01/30 06:41:14;;;;;;;28.83;26.83;;;;;;;;;;5095330;28;20190;-84
2021/01/30 06:43:44;;;;;;;28.33;26.42;;;;;;;;;;5095200;28;20209;-84
2021/01/30 06:46:12;;;;;;;27.05;25.02;;;;;;;;;;5094932;28;20197;-83
2021/01/30 06:48:40;;;;;;;29.52;27.52;;;;;;;;;;5077069;28;20218;-84
2021/01/30 06:51:27;;;;;;;29.55;27.35;;;;;;;;;;5095180;28;20192;-84
2021/01/30 06:53:57;;;;;;;28.20;26.15;;;;;;;;;;5094896;28;20191;-84
2021/01/30 06:56:26;;;;;;;28.17;26.15;;;;;;;;;;5094839;28;20203;-84
2021/01/30 06:59:03;;;;;;;28.80;26.73;;;;;;;;;;5093765;28;20187;-84
2021/01/30 07:01:39;;;;;;;28.50;26.50;;;;;;;;;;5094638;28;20211;-83
2021/01/30 07:04:20;;;;;;;29.02;26.77;;;;;;;;;;5095085;28;20269;-84
2021/01/30 07:06:53;;;;;;;27.40;25.50;;;;;;;;;;5092343;28;20214;-82
2021/01/30 07:09:30;;;;;;;29.02;26.90;;;;;;;;;;5094502;28;20229;-84
2021/01/30 07:12:01;;;;;;;28.23;26.13;;;;;;;;;;5094797;28;20210;-82
2021/01/30 07:14:33;;;;;;;29.95;27.67;;;;;;;;;;5094740;28;20191;-84
2021/01/30 07:17:03;;;;;;;29.98;27.38;;;;;;;;;;5094801;28;20187;-84
2021/01/30 07:19:39;;;;;;;29.02;26.90;;;;;;;;;;5094420;28;20241;-84
2021/01/30 07:22:08;;;;;;;31.90;29.42;;;;;;;;;;5094572;28;20214;-84
2021/01/30 07:24:42;;;;;;;29.08;26.90;;;;;;;;;;5094436;28;20232;-83
2021/01/30 07:27:14;;;;;;;30.15;27.85;;;;;;;;;;5094181;28;20281;-84
2021/01/30 07:29:45;;;;;;;31.60;29.20;;;;;;;;;;5093973;28;20215;-83
2021/01/30 07:32:15;;;;;;;29.70;27.50;;;;;;;;;;5094417;28;20191;-85
2021/01/30 07:34:59;;;;;;;32.45;29.85;;;;;;;;;;5076320;28;20209;-84
2021/01/30 07:37:30;;;;;;;32.10;29.40;;;;;;;;;;5094475;28;20183;-84
2021/01/30 07:40:00;;;;;;;32.15;29.60;;;;;;;;;;5094139;28;20648;-84
2021/01/30 07:42:29;;;;;;;31.83;29.25;;;;;;;;;;5094258;28;20222;-84
2021/01/30 07:45:02;;;;;;;32.03;29.42;;;;;;;;;;5094103;28;20194;-84
2021/01/30 07:47:32;;;;;;;31.88;29.38;;;;;;;;;;5094238;28;20188;-84
2021/01/30 07:50:01;;;;;;;31.55;28.95;;;;;;;;;;5094248;28;20185;-84
2021/01/30 07:52:30;;;;;;;32.00;29.48;;;;;;;;;;5093995;28;20186;-84
2021/01/30 07:54:58;;;;;;;32.88;30.17;;;;;;;;;;5094140;28;20201;-84
2021/01/30 07:57:33;;;;;;;34.30;31.40;;;;;;;;;;5093909;28;20183;-84
2021/01/30 08:00:07;;;;;;;32.72;29.65;;;;;;;;;;5094007;28;20186;-84
2021/01/30 08:02:42;;;;;;;35.78;32.78;;;;;;;;;;5093729;28;20222;-84
2021/01/30 08:05:25;;;;;;;32.95;30.25;;;;;;;;;;5089669;28;20201;-83
2021/01/30 08:07:56;;;;;;;31.27;28.98;;;;;;;;;;5093680;28;20234;-84
2021/01/30 08:10:26;;;;;;;35.95;32.53;;;;;;;;;;5096178;28;20186;-84
2021/01/30 08:13:01;;;;;;;30.80;28.33;;;;;;;;;;5097798;28;20240;-82
2021/01/30 08:15:31;;;;;;;33.20;30.60;;;;;;;;;;5098255;28;20194;-84
2021/01/30 08:18:00;;;;;;;34.78;31.63;;;;;;;;;;5080158;28;20206;-84
2021/01/30 08:20:34;;;;;;;37.70;34.35;;;;;;;;;;5079809;28;20216;-84
2021/01/30 08:23:06;;;;;;;43.92;39.97;;;;;;;;;;5097772;28;20221;-85
2021/01/30 08:25:37;;;;;;;36.45;33.35;;;;;;;;;;5098037;28;20194;-84
2021/01/30 08:28:09;;;;;;;34.30;31.50;;;;;;;;;;5097599;28;20198;-84
2021/01/30 08:30:37;;;;;;;31.08;28.77;;;;;;;;;;5097602;28;20258;-84
2021/01/30 08:33:05;;;;;;;33.95;31.15;;;;;;;;;;5097538;28;20212;-84
2021/01/30 08:35:50;;;;;;;34.33;31.63;;;;;;;;;;5079749;28;20578;-84
2021/01/30 08:38:44;;;;;;;32.00;29.45;;;;;;;;;;5097669;28;20213;-84
2021/01/30 08:41:28;;;;;;;30.52;28.25;;;;;;;;;;5015564;28;20205;-84
2021/01/30 08:43:56;;;;;;;31.58;29.08;;;;;;;;;;5015658;28;20213;-84
2021/01/30 08:46:27;;;;;;;33.10;30.70;;;;;;;;;;5016029;28;20209;-84
2021/01/30 08:49:01;;;;;;;31.73;29.42;;;;;;;;;;5015544;28;20205;-84
2021/01/30 08:51:29;;;;;;;30.60;28.08;;;;;;;;;;5015407;28;20615;-84
2021/01/30 08:53:56;;;;;;;30.30;28.02;;;;;;;;;;5015896;28;20205;-84
2021/01/30 08:56:41;;;;;;;31.70;29.40;;;;;;;;;;5015490;28;20194;-84
2021/01/30 08:59:11;;;;;;;30.63;28.42;;;;;;;;;;5015158;28;20217;-83
2021/01/30 09:01:42;;;;;;;30.70;28.50;;;;;;;;;;5015722;28;20233;-84
2021/01/30 09:04:23;;;;;;;31.40;29.15;;;;;;;;;;5015570;28;20240;-84
2021/01/30 09:06:57;;;;;;;29.58;27.45;;;;;;;;;;5014479;28;20210;-84
2021/01/30 09:09:25;;;;;;;29.90;27.70;;;;;;;;;;5014816;28;20253;-84
2021/01/30 09:11:53;;;;;;;29.40;27.20;;;;;;;;;;5014984;28;20218;-84
2021/01/30 09:14:38;;;;;;;29.63;27.23;;;;;;;;;;5015025;28;20407;-85
2021/01/30 09:17:29;;;;;;;29.85;27.55;;;;;;;;;;5052042;28;20199;-85
2021/01/30 09:20:03;;;;;;;31.00;28.60;;;;;;;;;;5076665;28;20176;-84
2021/01/30 09:22:38;;;;;;;29.25;27.25;;;;;;;;;;5075296;28;20227;-84
2021/01/30 09:25:14;;;;;;;30.98;28.70;;;;;;;;;;5076635;28;20191;-84
2021/01/30 09:27:47;;;;;;;30.85;28.75;;;;;;;;;;5076320;28;20195;-83
2021/01/30 09:30:22;;;;;;;30.48;28.17;;;;;;;;;;5075965;28;20223;-81
2021/01/30 09:32:49;;;;;;;30.98;28.73;;;;;;;;;;5076470;28;20266;-82
2021/01/30 09:35:21;;;;;;;30.48;28.13;;;;;;;;;;5076248;28;20278;-82
2021/01/30 09:37:48;;;;;;;32.60;30.10;;;;;;;;;;5076463;28;20545;-83
2021/01/30 09:40:21;;;;;;;31.10;28.70;;;;;;;;;;5076158;28;20183;-82
2021/01/30 09:42:56;;;;;;;29.98;27.63;;;;;;;;;;5075750;28;20231;-82
2021/01/30 09:45:24;;;;;;;30.90;28.50;;;;;;;;;;5075739;28;20760;-83
2021/01/30 09:47:52;;;;;;;29.50;27.17;;;;;;;;;;5076469;28;20290;-83
2021/01/30 09:50:22;;;;;;;29.38;27.17;;;;;;;;;;5076092;28;20188;-83
2021/01/30 09:52:52;;;;;;;29.70;27.40;;;;;;;;;;5075787;28;20210;-83
2021/01/30 09:55:20;;;;;;;28.02;25.92;;;;;;;;;;5075641;28;20211;-83
2021/01/30 09:57:48;;;;;;;27.63;25.70;;;;;;;;;;5075964;28;20288;-83
2021/01/30 10:00:17;;;;;;;28.77;26.58;;;;;;;;;;5075955;28;20192;-83
2021/01/30 10:02:44;;;;;;;27.77;25.77;;;;;;;;;;5075547;28;20254;-83
2021/01/30 10:05:12;;;;;;;27.00;25.20;;;;;;;;;;5075910;28;20188;-83
2021/01/30 10:07:41;;;;;;;27.98;25.98;;;;;;;;;;5078952;28;20234;-83
2021/01/30 10:10:26;;;;;;;27.88;25.92;;;;;;;;;;5095669;28;20221;-83
2021/01/30 10:12:53;;;;;;;26.75;24.95;;;;;;;;;;5095851;28;20187;-81
2021/01/30 10:15:26;;;;;;;26.55;24.50;;;;;;;;;;5095536;28;20190;-82
2021/01/30 10:17:53;;;;;;;29.10;27.00;;;;;;;;;;5095124;28;20673;-81
2021/01/30 10:20:20;;;;;;;28.02;26.02;;;;;;;;;;5095684;28;20187;-82
2021/01/30 10:22:49;;;;;;;29.60;27.45;;;;;;;;;;5095450;28;20226;-82
2021/01/30 10:25:18;;;;;;;28.67;26.67;;;;;;;;;;5095498;28;20209;-82
2021/01/30 10:27:45;;;;;;;28.40;26.35;;;;;;;;;;5095162;28;20187;-81
2021/01/30 10:30:14;;;;;;;28.38;26.17;;;;;;;;;;5095210;28;20580;-82
2021/01/30 10:32:43;;;;;;;27.67;25.60;;;;;;;;;;5095228;28;20274;-82
2021/01/30 10:35:13;;;;;;;27.27;25.38;;;;;;;;;;5094937;28;20175;-82
2021/01/30 10:37:41;;;;;;;27.30;25.30;;;;;;;;;;5094944;28;20195;-82
2021/01/30 10:40:12;;;;;;;28.48;26.50;;;;;;;;;;5094989;28;20202;-82
2021/01/30 10:42:39;;;;;;;30.00;27.80;;;;;;;;;;5095149;28;20568;-82
2021/01/30 10:45:14;;;;;;;28.63;26.63;;;;;;;;;;5094762;28;20191;-82
2021/01/30 10:47:41;;;;;;;26.50;24.70;;;;;;;;;;5094755;28;20194;-82
2021/01/30 10:50:09;;;;;;;24.90;23.20;;;;;;;;;;5094830;28;20218;-82
2021/01/30 10:52:36;;;;;;;31.95;28.85;;;;;;;;;;5095018;28;20191;-79
2021/01/30 10:55:27;;;;;;;33.45;30.58;;;;;;;;;;5094986;28;20266;-78
2021/01/30 10:58:11;;;;;;;26.48;24.77;;;;;;;;;;5074676;28;20206;-77
2021/01/30 11:00:38;;;;;;;29.25;27.33;;;;;;;;;;5093133;28;20195;-78
2021/01/30 11:03:19;;;;;;;32.08;29.60;;;;;;;;;;5094676;28;20218;-77
2021/01/30 11:05:46;;;;;;;30.30;28.00;;;;;;;;;;5094381;28;20193;-78
2021/01/30 11:08:24;;;;;;;32.28;29.42;;;;;;;;;;5093961;28;20727;-77
2021/01/30 11:10:51;;;;;;;28.48;26.35;;;;;;;;;;5094622;28;20186;-79
2021/01/30 11:13:26;;;;;;;28.75;26.70;;;;;;;;;;5094383;28;20278;-78
2021/01/30 11:16:03;;;;;;;26.88;24.98;;;;;;;;;;5093704;28;20197;-81
2021/01/30 11:18:33;;;;;;;26.00;24.23;;;;;;;;;;5094102;28;20198;-80
2021/01/30 11:21:01;;;;;;;27.15;25.35;;;;;;;;;;5094141;28;20187;-81
2021/01/30 11:23:37;;;;;;;27.40;25.60;;;;;;;;;;5094255;28;20327;-80
2021/01/30 11:26:24;;;;;;;28.27;26.25;;;;;;;;;;5092378;28;20199;-82
2021/01/30 11:28:52;;;;;;;27.83;25.75;;;;;;;;;;5093927;28;20222;-80
2021/01/30 11:31:19;;;;;;;28.00;25.90;;;;;;;;;;5094097;28;20187;-84
2021/01/30 11:33:46;;;;;;;28.85;26.85;;;;;;;;;;5094446;28;20183;-85
2021/01/30 11:36:16;;;;;;;28.73;26.83;;;;;;;;;;5094474;28;20547;-85
2021/01/30 11:38:44;;;;;;;27.38;25.58;;;;;;;;;;5094727;28;20191;-85
2021/01/30 11:41:11;;;;;;;28.48;26.58;;;;;;;;;;5094173;28;20633;-81
2021/01/30 11:43:38;;;;;;;25.77;24.08;;;;;;;;;;5093498;28;20218;-79
2021/01/30 11:46:05;;;;;;;27.92;26.02;;;;;;;;;;5093392;28;20187;-79
2021/01/30 11:48:32;;;;;;;26.20;24.50;;;;;;;;;;5093526;28;20637;-83
2021/01/30 11:50:59;;;;;;;31.75;29.20;;;;;;;;;;5093819;28;20191;-82
2021/01/30 11:53:30;;;;;;;28.67;26.67;;;;;;;;;;5094195;28;20641;-80
2021/01/30 11:55:57;;;;;;;26.27;24.35;;;;;;;;;;5093226;28;20187;-80
2021/01/30 11:58:23;;;;;;;26.60;24.70;;;;;;;;;;5093251;28;20234;-80
2021/01/30 12:00:51;;;;;;;26.60;24.83;;;;;;;;;;5094134;28;20192;-78
2021/01/30 12:03:22;;;;;;;26.33;24.63;;;;;;;;;;5094023;28;20218;-78
2021/01/30 12:05:49;;;;;;;27.58;25.55;;;;;;;;;;5093830;28;20190;-78
2021/01/30 12:08:16;;;;;;;26.55;24.85;;;;;;;;;;5093511;28;20235;-78
2021/01/30 12:10:43;;;;;;;28.92;26.92;;;;;;;;;;5093801;28;20244;-78
2021/01/30 12:13:10;;;;;;;33.40;30.95;;;;;;;;;;5093591;28;20190;-78
2021/01/30 12:15:37;;;;;;;26.15;24.45;;;;;;;;;;5093403;28;20636;-78
2021/01/30 12:18:07;;;;;;;26.70;24.90;;;;;;;;;;5093387;28;20190;-78
2021/01/30 12:20:36;;;;;;;26.05;24.30;;;;;;;;;;5093769;28;20201;-78
2021/01/30 12:23:03;;;;;;;26.08;24.17;;;;;;;;;;5093368;28;20222;-77
2021/01/30 12:25:30;;;;;;;24.05;22.45;;;;;;;;;;5093145;28;20548;-77
2021/01/30 12:27:58;;;;;;;25.63;24.00;;;;;;;;;;5093208;28;20187;-78
2021/01/30 12:30:26;;;;;;;27.35;25.27;;;;;;;;;;5093076;28;20219;-79
2021/01/30 12:32:54;;;;;;;25.45;23.73;;;;;;;;;;5093239;28;20712;-77
2021/01/30 12:35:22;;;;;;;24.52;22.85;;;;;;;;;;5092510;28;20191;-77
2021/01/30 12:37:50;;;;;;;22.83;21.30;;;;;;;;;;5087027;28;20191;-77
2021/01/30 12:40:18;;;;;;;25.88;24.08;;;;;;;;;;5086151;28;20265;-82
2021/01/30 12:42:45;;;;;;;25.50;23.80;;;;;;;;;;5082921;28;20257;-80
2021/01/30 12:45:12;;;;;;;26.80;25.00;;;;;;;;;;5081473;28;20196;-80
2021/01/30 12:47:39;;;;;;;24.88;23.25;;;;;;;;;;5065338;28;20202;-82
2021/01/30 12:50:07;;;;;;;26.50;24.70;;;;;;;;;;5072913;28;20544;-78
2021/01/30 12:52:34;;;;;;;25.65;23.95;;;;;;;;;;5073168;28;20298;-78
2021/01/30 12:55:02;;;;;;;27.23;25.33;;;;;;;;;;5073093;28;20188;-78
2021/01/30 12:57:29;;;;;;;26.23;24.40;;;;;;;;;;5074804;28;20587;-80
2021/01/30 12:59:56;;;;;;;27.63;25.83;;;;;;;;;;5058548;28;20195;-78
2021/01/30 13:02:22;;;;;;;28.00;26.10;;;;;;;;;;5076371;28;20208;-78
2021/01/30 13:04:49;;;;;;;27.52;25.63;;;;;;;;;;5076764;28;20245;-78
2021/01/30 13:07:16;;;;;;;26.63;24.73;;;;;;;;;;5076487;28;20195;-78
2021/01/30 13:09:43;;;;;;;24.40;22.92;;;;;;;;;;5076337;28;20210;-78
2021/01/30 13:12:11;;;;;;;27.80;25.85;;;;;;;;;;5076533;28;20195;-78
2021/01/30 13:14:39;;;;;;;25.35;23.65;;;;;;;;;;5076242;28;20203;-77
2021/01/30 13:17:06;;;;;;;27.77;25.88;;;;;;;;;;5076270;28;20192;-80
2021/01/30 13:19:33;;;;;;;27.13;25.33;;;;;;;;;;5075567;28;20191;-83
2021/01/30 13:21:59;;;;;;;26.17;24.48;;;;;;;;;;5076722;28;20288;-84
2021/01/30 13:24:27;;;;;;;26.05;24.25;;;;;;;;;;5076287;28;20183;-80
2021/01/30 13:26:54;;;;;;;26.15;24.35;;;;;;;;;;5076260;28;20192;-81
2021/01/30 13:29:21;;;;;;;26.52;24.67;;;;;;;;;;5076008;28;20223;-81
2021/01/30 13:31:49;;;;;;;28.75;26.58;;;;;;;;;;5075797;28;20199;-81
2021/01/30 13:34:17;;;;;;;29.33;27.17;;;;;;;;;;5076254;28;20191;-81
2021/01/30 13:36:44;;;;;;;25.48;23.77;;;;;;;;;;5075060;28;20526;-82
2021/01/30 13:39:11;;;;;;;25.23;23.48;;;;;;;;;;5076274;28;20214;-81
2021/01/30 13:41:38;;;;;;;27.75;25.70;;;;;;;;;;5076195;28;20195;-81
2021/01/30 13:44:08;;;;;;;27.35;25.45;;;;;;;;;;5075815;28;20219;-80
2021/01/30 13:46:35;;;;;;;25.90;24.13;;;;;;;;;;5075980;28;20191;-81
2021/01/30 13:49:02;;;;;;;25.98;24.17;;;;;;;;;;5075923;28;20542;-81
2021/01/30 13:51:29;;;;;;;28.48;26.38;;;;;;;;;;5075956;28;20187;-80
2021/01/30 13:53:58;;;;;;;25.42;23.73;;;;;;;;;;5075952;28;20193;-80
2021/01/30 13:56:25;;;;;;;25.55;23.75;;;;;;;;;;5075793;28;20262;-81
2021/01/30 13:58:51;;;;;;;29.10;27.10;;;;;;;;;;5075247;28;20233;-80
2021/01/30 14:01:18;;;;;;;26.60;24.83;;;;;;;;;;5075677;28;20187;-81
2021/01/30 14:03:46;;;;;;;28.17;26.23;;;;;;;;;;5075662;28;20746;-80
2021/01/30 14:06:13;;;;;;;27.50;25.60;;;;;;;;;;5075162;28;20200;-80
2021/01/30 14:08:40;;;;;;;28.00;26.00;;;;;;;;;;5074575;28;20281;-81
2021/01/30 14:11:07;;;;;;;27.50;25.52;;;;;;;;;;5075554;28;20633;-80
2021/01/30 14:13:34;;;;;;;25.20;23.58;;;;;;;;;;5075016;28;20230;-80
2021/01/30 14:16:01;;;;;;;25.25;23.55;;;;;;;;;;5075523;28;20187;-80
2021/01/30 14:18:28;;;;;;;27.00;25.00;;;;;;;;;;5075008;28;20196;-80
2021/01/30 14:20:56;;;;;;;25.15;23.58;;;;;;;;;;5075040;28;20215;-80
2021/01/30 14:23:23;;;;;;;25.35;23.63;;;;;;;;;;5075223;28;20303;-81
2021/01/30 14:25:49;;;;;;;36.50;32.70;;;;;;;;;;5074868;28;20191;-80
2021/01/30 14:28:17;;;;;;;24.88;23.33;;;;;;;;;;5075959;28;20572;-80
2021/01/30 14:30:45;;;;;;;24.02;22.42;;;;;;;;;;5074896;28;20193;-81
2021/01/30 14:33:12;;;;;;;25.05;23.45;;;;;;;;;;5057674;28;20194;-81